• 1
  • 2
  • 1

 

 

 
NEU! ab. 1.4.
Nortel Info 128,740 MHz

WebCam

  
Kamera Halle
Kamera Vorfeld
Wetter EDDS

METAR

EDDS 200420Z 12002KT CAVOK 16/12 Q1015 NOSIG =


TAF

EDDS 192300Z 2000/2024 32004KT CAVOK PROB40 TEMPO 2013/2022 20012KT TSRA SCT055CB =


SR/SS

03:41 / 19:14 UTC
(EDSO 20-07-2018)